Time;durP1;ratioP1;P1;durP2;ratioP2;P2;SDS_P1;SDS_P2;PMS_P1;PMS_P2;Temp;Humidity;BMP_temperature;BMP_pressure;BME280_temperature;BME280_humidity;BME280_pressure;Samples;Min_cycle;Max_cycle;Signal;HPM_P1;HPM_P2
2023/10/04 00:01:16;;;;;;;10.50;4.10;;;;;;;12.40;62.64;99562.81;5019578;28;20042;-78
2023/10/04 00:03:47;;;;;;;7.10;3.47;;;;;;;12.47;62.72;99582.69;5009851;28;20038;-79
2023/10/04 00:06:17;;;;;;;9.60;3.88;;;;;;;12.29;62.65;99550.00;5022325;28;20072;-79
2023/10/04 00:08:46;;;;;;;10.07;3.58;;;;;;;12.46;62.60;99582.75;5019172;28;20105;-79
2023/10/04 00:11:14;;;;;;;6.25;3.60;;;;;;;12.20;62.79;99539.75;5019916;28;20531;-78
2023/10/04 00:13:43;;;;;;;9.32;3.40;;;;;;;12.20;63.14;99543.22;5021379;28;20136;-77
2023/10/04 00:16:13;;;;;;;5.38;3.25;;;;;;;12.24;63.04;99559.69;5016714;28;20053;-77
2023/10/04 00:18:39;;;;;;;8.63;3.72;;;;;;;12.27;63.43;99556.16;5014740;28;20037;-77
2023/10/04 00:21:06;;;;;;;6.78;3.15;;;;;;;12.17;63.26;99537.22;5015094;28;20562;-78
2023/10/04 00:23:33;;;;;;;9.15;3.90;;;;;;;12.31;63.30;99563.03;5016939;28;20130;-77
2023/10/04 00:25:59;;;;;;;7.72;3.65;;;;;;;12.32;63.72;99565.59;5003362;28;20045;-77
2023/10/04 00:28:25;;;;;;;7.05;3.28;;;;;;;12.35;63.94;99562.94;5015240;28;20137;-77
2023/10/04 00:30:51;;;;;;;11.38;3.58;;;;;;;12.44;63.89;99563.66;5030713;28;20036;-76
2023/10/04 00:33:19;;;;;;;8.68;3.67;;;;;;;12.39;63.75;99542.00;5002269;28;20045;-77
2023/10/04 00:35:46;;;;;;;11.43;4.25;;;;;;;12.48;63.67;99560.94;5019460;28;20061;-77
2023/10/04 00:38:15;;;;;;;7.93;3.78;;;;;;;12.49;63.75;99556.56;5030606;28;20107;-77
2023/10/04 00:40:43;;;;;;;8.30;3.38;;;;;;;12.41;63.83;99551.50;5013030;28;20042;-78
2023/10/04 00:43:19;;;;;;;8.07;3.70;;;;;;;12.35;63.83;99539.44;5005432;28;20562;-77
2023/10/04 00:45:49;;;;;;;12.50;3.60;;;;;;;12.44;63.93;99558.44;5005811;28;20041;-76
2023/10/04 00:48:23;;;;;;;7.95;3.33;;;;;;;12.30;64.12;99546.50;5016077;28;20781;-76
2023/10/04 00:50:49;;;;;;;7.93;3.95;;;;;;;12.38;63.85;99545.50;5035371;28;20067;-75
2023/10/04 00:53:26;;;;;;;6.55;3.63;;;;;;;12.23;64.31;99534.50;5021729;28;20133;-76
2023/10/04 00:55:56;;;;;;;7.18;3.90;;;;;;;12.16;64.31;99510.25;5017461;28;20053;-77
2023/10/04 00:58:25;;;;;;;9.88;3.88;;;;;;;12.23;63.93;99524.06;5016071;28;20064;-75
2023/10/04 01:00:52;;;;;;;7.65;3.50;;;;;;;12.22;64.53;99522.34;5018798;28;20141;-76
2023/10/04 01:03:20;;;;;;;7.45;3.80;;;;;;;12.23;64.68;99529.28;5018311;28;20046;-76
2023/10/04 01:05:47;;;;;;;7.88;3.53;;;;;;;12.28;64.49;99523.97;4985215;28;20034;-76
2023/10/04 01:08:20;;;;;;;9.90;4.20;;;;;;;12.23;64.73;99518.84;5016749;28;20049;-76
2023/10/04 01:10:47;;;;;;;9.65;3.92;;;;;;;12.19;64.81;99502.38;5019510;28;20526;-75
2023/10/04 01:13:17;;;;;;;6.38;3.70;;;;;;;12.22;64.81;99503.19;5001745;28;20085;-74
2023/10/04 01:15:44;;;;;;;7.35;4.03;;;;;;;12.30;64.84;99520.41;5003282;28;20048;-76
2023/10/04 01:18:15;;;;;;;8.18;3.83;;;;;;;12.26;64.73;99523.97;5000192;28;20045;-75
2023/10/04 01:20:42;;;;;;;8.05;3.70;;;;;;;12.24;64.96;99520.56;5002168;28;20034;-77
2023/10/04 01:23:11;;;;;;;9.43;4.10;;;;;;;12.26;65.03;99517.91;5020567;28;20041;-77
2023/10/04 01:25:42;;;;;;;9.95;3.97;;;;;;;12.15;65.30;99499.88;5014437;28;20048;-76
2023/10/04 01:28:13;;;;;;;8.02;3.95;;;;;;;12.22;65.36;99506.69;5004120;28;20045;-77
2023/10/04 01:30:41;;;;;;;9.65;4.13;;;;;;;12.14;65.29;99480.72;5013961;28;20049;-77
2023/10/04 01:33:18;;;;;;;8.88;4.10;;;;;;;12.22;65.36;99501.47;5017561;28;20538;-76
2023/10/04 01:35:49;;;;;;;6.85;3.85;;;;;;;12.19;65.46;99501.53;5011822;28;20132;-78
2023/10/04 01:38:24;;;;;;;8.43;3.83;;;;;;;12.02;65.74;99467.94;5009873;28;21380;-78
2023/10/04 01:40:56;;;;;;;8.57;3.72;;;;;;;12.09;65.49;99484.34;5003085;28;20412;-78
2023/10/04 01:43:24;;;;;;;6.57;4.00;;;;;;;12.08;65.79;99493.03;5017484;28;20049;-78
2023/10/04 01:45:57;;;;;;;7.47;3.90;;;;;;;11.93;65.91;99463.75;5016168;28;20076;-74
2023/10/04 01:48:28;;;;;;;7.15;4.25;;;;;;;12.07;65.90;99486.09;5015368;28;20404;-76
2023/10/04 01:50:54;;;;;;;9.95;4.15;;;;;;;12.02;66.17;99468.84;5015552;28;20037;-76
2023/10/04 01:53:24;;;;;;;9.13;3.72;;;;;;;11.91;66.25;99460.31;5018263;28;20038;-77
2023/10/04 01:55:50;;;;;;;7.40;3.90;;;;;;;11.39;66.13;99369.22;5016662;28;20041;-75
2023/10/04 01:58:21;;;;;;;12.43;5.22;;;;;;;12.00;66.51;99468.00;4981943;28;20034;-76
2023/10/04 02:00:51;;;;;;;9.02;3.65;;;;;;;11.89;66.42;99455.16;5013681;28;20511;-76
2023/10/04 02:03:17;;;;;;;7.13;3.72;;;;;;;11.78;66.26;99433.63;5002039;28;20041;-76
2023/10/04 02:05:45;;;;;;;8.63;4.45;;;;;;;11.82;66.73;99435.28;4995003;28;20045;-76
2023/10/04 02:08:12;;;;;;;7.57;4.32;;;;;;;11.95;66.85;99455.88;5014179;28;20078;-76
2023/10/04 02:10:44;;;;;;;7.93;4.32;;;;;;;11.95;66.66;99454.16;5001618;28;20059;-77
2023/10/04 02:13:15;;;;;;;8.38;4.32;;;;;;;11.89;66.77;99441.22;5010350;28;20264;-81
2023/10/04 02:15:52;;;;;;;7.53;4.03;;;;;;;11.78;67.18;99422.34;5021368;28;20109;-81
2023/10/04 02:18:20;;;;;;;7.50;3.75;;;;;;;11.79;67.46;99422.31;4993885;28;20060;-80
2023/10/04 02:20:48;;;;;;;11.15;4.32;;;;;;;11.92;67.10;99425.53;4994917;28;20045;-80
2023/10/04 02:23:16;;;;;;;10.02;4.13;;;;;;;11.85;67.05;99411.78;5018818;28;20034;-82
2023/10/04 02:25:43;;;;;;;12.40;4.43;;;;;;;11.92;67.41;99417.72;5016928;28;20049;-80
2023/10/04 02:28:11;;;;;;;7.85;4.00;;;;;;;12.05;67.22;99437.44;5002798;28;20038;-79
2023/10/04 02:30:39;;;;;;;9.88;4.20;;;;;;;11.92;67.38;99406.44;5019162;28;20041;-81
2023/10/04 02:33:13;;;;;;;5.47;3.85;;;;;;;12.09;67.13;99426.97;5001110;28;20042;-82
2023/10/04 02:35:47;;;;;;;9.18;3.70;;;;;;;12.01;66.99;99409.75;4996868;28;20042;-76
2023/10/04 02:38:23;;;;;;;9.23;4.22;;;;;;;12.01;67.46;99401.91;5012124;28;20057;-75
2023/10/04 02:40:50;;;;;;;7.82;3.75;;;;;;;12.13;67.34;99403.41;5001694;28;20042;-75
2023/10/04 02:43:20;;;;;;;8.77;4.20;;;;;;;12.10;67.40;99393.03;5035852;28;20045;-76
2023/10/04 02:45:52;;;;;;;10.57;4.35;;;;;;;12.06;67.45;99386.16;4996029;28;20108;-75
2023/10/04 02:48:23;;;;;;;8.95;4.28;;;;;;;12.08;67.13;99405.25;5014760;28;20061;-75
2023/10/04 02:50:50;;;;;;;7.93;4.03;;;;;;;12.04;67.37;99383.56;5015983;28;20048;-75
2023/10/04 02:53:24;;;;;;;11.10;4.13;;;;;;;12.17;67.36;99393.75;5000155;28;20490;-75
2023/10/04 02:55:54;;;;;;;6.30;3.87;;;;;;;12.01;67.35;99360.19;5033225;28;20092;-76
2023/10/04 02:58:24;;;;;;;6.65;4.07;;;;;;;12.19;67.41;99386.75;5013567;28;20041;-75
2023/10/04 03:00:51;;;;;;;9.52;4.50;;;;;;;12.14;67.35;99378.16;4998030;28;20034;-74
2023/10/04 03:03:25;;;;;;;8.32;4.22;;;;;;;12.16;67.53;99371.16;5002995;28;20070;-79
2023/10/04 03:06:00;;;;;;;12.15;4.05;;;;;;;12.13;67.41;99368.63;5014328;28;20097;-80
2023/10/04 03:08:27;;;;;;;8.25;3.95;;;;;;;12.00;67.28;99350.66;5018182;28;20176;-79
2023/10/04 03:10:55;;;;;;;14.05;4.45;;;;;;;12.10;67.51;99355.66;5003048;28;20499;-80
2023/10/04 03:13:27;;;;;;;7.35;4.00;;;;;;;12.21;67.54;99374.53;5035440;28;20056;-80
2023/10/04 03:16:00;;;;;;;9.52;4.45;;;;;;;12.07;67.59;99350.50;5024738;28;20045;-80
2023/10/04 03:18:26;;;;;;;10.60;4.50;;;;;;;12.23;67.36;99362.34;5003089;28;20073;-80
2023/10/04 03:23:33;;;;;;;12.00;4.75;;;;;;;12.18;67.45;99345.91;5035020;28;20040;-81
2023/10/04 03:26:03;;;;;;;10.30;4.13;;;;;;;12.16;67.15;99334.66;5022410;28;20120;-80
2023/10/04 03:28:34;;;;;;;7.90;4.03;;;;;;;12.30;67.46;99363.88;4999981;28;20042;-80
2023/10/04 03:31:14;;;;;;;11.20;4.35;;;;;;;12.32;67.52;99349.06;5016470;28;20042;-81
2023/10/04 03:33:44;;;;;;;12.13;4.53;;;;;;;12.22;67.34;99324.09;5010774;28;20052;-82
2023/10/04 03:36:17;;;;;;;11.07;4.90;;;;;;;12.30;67.39;99326.53;5006206;28;20050;-81
2023/10/04 03:38:51;;;;;;;9.18;4.32;;;;;;;12.41;67.26;99323.66;5021563;28;20045;-81
2023/10/04 03:41:19;;;;;;;9.25;4.68;;;;;;;12.43;67.04;99338.38;5018514;28;20483;-81
2023/10/04 03:43:46;;;;;;;13.68;4.95;;;;;;;12.45;67.15;99330.53;5022830;28;20240;-76
2023/10/04 03:46:19;;;;;;;10.98;4.45;;;;;;;12.46;67.04;99329.63;5005383;28;20496;-76
2023/10/04 03:48:49;;;;;;;7.55;4.50;;;;;;;12.34;67.29;99304.69;4998208;28;20154;-79
2023/10/04 03:51:20;;;;;;;9.18;4.50;;;;;;;12.45;66.82;99320.09;5020408;28;20057;-79
2023/10/04 03:53:50;;;;;;;10.13;4.55;;;;;;;12.55;67.22;99315.50;5016544;28;20038;-77
2023/10/04 03:56:18;;;;;;;7.55;4.25;;;;;;;12.56;66.85;99318.06;5025561;28;20045;-75
2023/10/04 03:58:45;;;;;;;10.40;4.47;;;;;;;12.43;66.90;99306.22;5017863;28;20243;-77
2023/10/04 04:01:14;;;;;;;8.73;4.30;;;;;;;12.49;66.77;99313.88;5016036;28;20053;-77
2023/10/04 04:03:44;;;;;;;8.73;4.28;;;;;;;12.65;66.86;99328.28;5017051;28;20060;-77
2023/10/04 04:06:11;;;;;;;10.25;4.68;;;;;;;12.56;66.74;99307.63;5016870;28;20079;-75
2023/10/04 04:08:38;;;;;;;10.02;4.75;;;;;;;12.73;66.67;99311.53;5002136;28;20049;-75
2023/10/04 04:11:07;;;;;;;9.13;4.22;;;;;;;12.70;66.48;99312.50;5024790;28;20038;-77
2023/10/04 04:13:35;;;;;;;8.20;4.22;;;;;;;12.77;66.48;99315.78;5002394;28;20141;-76
2023/10/04 04:16:09;;;;;;;9.25;4.50;;;;;;;12.85;66.33;99320.81;5001489;28;20124;-78
2023/10/04 04:18:37;;;;;;;10.60;4.68;;;;;;;12.83;66.04;99306.94;5019075;28;20506;-75
2023/10/04 04:21:07;;;;;;;8.75;4.43;;;;;;;12.93;66.06;99305.81;5001922;28;20052;-76
2023/10/04 04:23:35;;;;;;;11.13;4.13;;;;;;;13.05;65.91;99317.69;5033097;28;20083;-79
2023/10/04 04:26:05;;;;;;;8.52;4.95;;;;;;;13.02;65.71;99287.28;5002286;28;20144;-75
2023/10/04 04:28:36;;;;;;;9.63;4.93;;;;;;;13.28;65.91;99306.59;5000534;28;20141;-77
2023/10/04 04:31:14;;;;;;;8.00;4.35;;;;;;;13.36;65.56;99306.38;5016961;28;20089;-79
2023/10/04 04:33:46;;;;;;;8.73;4.88;;;;;;;13.30;65.12;99281.28;5005987;28;20084;-73
2023/10/04 04:36:18;;;;;;;15.55;4.10;;;;;;;13.26;65.06;99253.53;5014712;28;20038;-78
2023/10/04 04:38:47;;;;;;;8.98;4.43;;;;;;;13.43;64.59;99286.22;5038227;28;20065;-74
2023/10/04 04:41:14;;;;;;;12.40;4.00;;;;;;;13.40;64.50;99264.50;5030181;28;20137;-72
2023/10/04 04:43:49;;;;;;;9.13;4.63;;;;;;;13.59;64.25;99297.06;5001790;28;20033;-75
2023/10/04 04:46:16;;;;;;;8.27;4.22;;;;;;;13.47;63.87;99257.31;5007498;28;20037;-74
2023/10/04 04:48:43;;;;;;;8.18;4.32;;;;;;;13.41;63.93;99260.09;5021946;28;20046;-75
2023/10/04 04:51:18;;;;;;;11.57;4.93;;;;;;;13.60;63.60;99273.50;5026086;28;20058;-73
2023/10/04 04:53:59;;;;;;;6.47;4.07;;;;;;;13.72;63.52;99280.13;5022362;28;20052;-76
2023/10/04 04:56:28;;;;;;;9.52;4.45;;;;;;;13.80;63.44;99259.81;5040920;28;20041;-73
2023/10/04 04:59:07;;;;;;;13.15;5.40;;;;;;;13.84;62.93;99219.59;5019961;28;20025;-74
2023/10/04 05:01:34;;;;;;;12.00;4.43;;;;;;;14.21;62.42;99250.72;5040569;28;20050;-76
2023/10/04 05:04:08;;;;;;;10.57;4.20;;;;;;;14.24;62.21;99248.84;5025989;28;20081;-79
2023/10/04 05:06:38;;;;;;;9.20;4.35;;;;;;;14.49;61.57;99250.66;5019910;28;20064;-75
2023/10/04 05:09:10;;;;;;;10.75;4.55;;;;;;;14.68;61.46;99240.44;5032185;28;20033;-75
2023/10/04 05:11:45;;;;;;;9.30;4.75;;;;;;;15.13;60.90;99223.13;5023328;28;20203;-75
2023/10/04 05:14:14;;;;;;;10.30;4.38;;;;;;;15.76;60.16;99240.03;5003714;28;20531;-76
2023/10/04 05:16:44;;;;;;;13.50;5.15;;;;;;;16.07;58.69;99239.69;5023222;28;20042;-76
2023/10/04 05:19:11;;;;;;;13.20;4.65;;;;;;;16.08;58.24;99173.16;5002216;28;20147;-73
2023/10/04 05:21:37;;;;;;;10.65;4.45;;;;;;;16.85;57.19;99213.66;5021213;28;20491;-75
2023/10/04 05:24:06;;;;;;;9.55;4.93;;;;;;;17.18;56.26;99217.50;5036567;28;20038;-74
2023/10/04 05:26:35;;;;;;;9.95;4.10;;;;;;;17.27;55.19;99200.44;4994159;28;20050;-74
2023/10/04 05:29:07;;;;;;;15.63;4.60;;;;;;;17.71;53.85;99221.19;5005556;28;20529;-73
2023/10/04 05:31:34;;;;;;;9.98;4.47;;;;;;;17.84;52.96;99167.94;5021820;28;20041;-75
2023/10/04 05:34:00;;;;;;;12.73;4.72;;;;;;;18.76;52.13;99211.66;5019002;28;20038;-73
2023/10/04 05:36:26;;;;;;;9.57;4.15;;;;;;;18.97;50.29;99180.72;5008712;28;20030;-71
2023/10/04 05:38:52;;;;;;;12.52;4.85;;;;;;;19.17;49.77;99192.00;5022749;28;20518;-73
2023/10/04 05:41:19;;;;;;;11.25;4.90;;;;;;;19.60;48.30;99204.59;5015958;28;20049;-75
2023/10/04 05:43:45;;;;;;;14.75;4.78;;;;;;;19.72;47.87;99177.53;5023521;28;20080;-71
2023/10/04 05:46:14;;;;;;;15.23;5.80;;;;;;;19.91;47.48;99187.06;5017242;28;20407;-72
2023/10/04 05:48:44;;;;;;;14.93;4.97;;;;;;;19.92;46.29;99180.84;5015065;28;20080;-71
2023/10/04 05:51:12;;;;;;;12.30;4.32;;;;;;;20.39;46.05;99166.66;5014026;28;20056;-75
2023/10/04 05:53:37;;;;;;;12.35;4.72;;;;;;;20.57;44.48;99147.97;5015376;28;20133;-78
2023/10/04 05:56:05;;;;;;;8.90;4.35;;;;;;;21.04;44.11;99168.03;5011430;28;20041;-73
2023/10/04 05:58:32;;;;;;;11.55;4.63;;;;;;;21.43;43.06;99155.00;5033424;28;20132;-73
2023/10/04 06:01:02;;;;;;;7.53;4.22;;;;;;;22.10;42.48;99161.28;5016641;28;20385;-73
2023/10/04 06:03:28;;;;;;;9.90;4.63;;;;;;;22.83;41.48;99154.59;5021378;28;20042;-71
2023/10/04 06:05:54;;;;;;;12.10;4.63;;;;;;;23.06;40.30;99156.56;5004904;28;20038;-74
2023/10/04 06:08:21;;;;;;;11.13;5.22;;;;;;;22.40;39.41;99168.97;5015375;28;20447;-73
2023/10/04 06:10:55;;;;;;;8.80;4.72;;;;;;;21.48;40.35;99149.41;4991398;28;20037;-72
2023/10/04 06:13:29;;;;;;;9.52;4.88;;;;;;;20.77;41.71;99129.13;5018013;28;20060;-70
2023/10/04 06:15:55;;;;;;;11.90;5.30;;;;;;;20.50;41.33;99144.84;5017800;28;20065;-71
2023/10/04 06:18:29;;;;;;;17.23;5.00;;;;;;;19.89;41.93;99151.97;5008625;28;20040;-73
2023/10/04 06:21:09;;;;;;;13.27;5.15;;;;;;;19.40;43.44;99138.81;5006816;28;20045;-74
2023/10/04 06:23:36;;;;;;;12.43;4.82;;;;;;;19.20;43.30;99133.81;5047015;28;20050;-74
2023/10/04 06:26:02;;;;;;;9.77;5.38;;;;;;;19.00;44.34;99137.53;5025293;28;20104;-74
2023/10/04 06:28:31;;;;;;;11.30;4.68;;;;;;;18.78;44.09;99097.31;5035616;28;20567;-70
2023/10/04 06:30:57;;;;;;;9.90;4.95;;;;;;;18.87;43.92;99138.16;5027875;28;20052;-71
2023/10/04 06:33:24;;;;;;;11.00;4.82;;;;;;;18.72;44.65;99110.00;5021791;28;20037;-72
2023/10/04 06:36:00;;;;;;;15.23;4.72;;;;;;;18.69;44.49;99134.72;5044535;28;20046;-71
2023/10/04 06:38:26;;;;;;;13.68;5.07;;;;;;;18.10;44.85;99069.28;5038162;28;20041;-70
2023/10/04 06:40:52;;;;;;;10.40;5.15;;;;;;;18.33;45.06;99104.09;5026968;28;20104;-71
2023/10/04 06:43:21;;;;;;;11.98;5.10;;;;;;;18.49;45.41;99141.03;5038257;28;20041;-70
2023/10/04 06:45:51;;;;;;;13.48;5.70;;;;;;;18.34;44.81;99088.25;5043455;28;20107;-70
2023/10/04 06:48:18;;;;;;;10.38;4.72;;;;;;;18.41;45.44;99122.16;5039667;28;20072;-70
2023/10/04 06:50:54;;;;;;;;;;;;;;;;;;;;;
2023/10/04 06:53:22;;;;;;;11.82;4.47;;;;;;;18.73;45.61;99114.31;5019416;28;20084;-70
2023/10/04 06:55:48;;;;;;;13.05;5.55;;;;;;;18.89;45.18;99099.38;4993772;28;20050;-69
2023/10/04 06:58:21;;;;;;;16.33;5.38;;;;;;;18.99;45.43;99081.31;5019988;28;20034;-70
2023/10/04 07:00:48;;;;;;;17.77;5.50;;;;;;;18.98;44.74;99097.22;5037690;28;20042;-70
2023/10/04 07:03:15;;;;;;;18.35;5.20;;;;;;;19.26;44.67;99102.66;5021063;28;20038;-69
2023/10/04 07:05:47;;;;;;;13.40;4.97;;;;;;;19.43;44.13;99103.50;5044827;28;20057;-71
2023/10/04 07:08:18;;;;;;;14.15;4.78;;;;;;;19.52;43.89;99062.56;5026077;28;20533;-73
2023/10/04 07:10:45;;;;;;;18.45;4.60;;;;;;;19.89;43.22;99085.97;5037559;28;20488;-70
2023/10/04 07:13:16;;;;;;;16.48;5.38;;;;;;;20.10;43.21;99095.25;5040097;28;20096;-72
2023/10/04 07:16:30;;;;;;;14.95;5.22;;;;;;;20.19;41.75;99067.44;5035527;28;20033;-70
2023/10/04 07:18:59;;;;;;;18.30;4.78;;;;;;;19.93;42.48;99069.03;5037932;28;20132;-69
2023/10/04 07:21:26;;;;;;;14.45;4.75;;;;;;;19.74;42.56;99027.00;5023357;28;20042;-71
2023/10/04 07:23:52;;;;;;;9.85;5.07;;;;;;;19.91;42.43;99055.06;5016168;28;20052;-70
2023/10/04 07:26:19;;;;;;;17.17;5.20;;;;;;;19.43;42.73;99011.19;5039097;28;20038;-70
2023/10/04 07:28:48;;;;;;;11.63;4.97;;;;;;;19.41;42.52;99036.78;5024009;28;20038;-71
2023/10/04 07:31:15;;;;;;;15.68;5.53;;;;;;;19.00;42.89;99001.28;5040424;28;20357;-73
2023/10/04 07:33:41;;;;;;;12.40;5.28;;;;;;;19.06;43.17;99011.50;5025107;28;20052;-71
2023/10/04 07:36:10;;;;;;;13.35;5.20;;;;;;;19.00;43.19;99021.53;5037152;28;20068;-72
2023/10/04 07:38:39;;;;;;;16.00;5.13;;;;;;;18.84;43.69;99022.38;5040942;28;20053;-70
2023/10/04 07:41:05;;;;;;;17.48;5.50;;;;;;;18.86;43.48;99015.25;5037348;28;20038;-70
2023/10/04 07:43:35;;;;;;;10.05;5.15;;;;;;;18.88;43.92;99025.69;5009221;28;20046;-70
2023/10/04 07:46:09;;;;;;;10.35;5.13;;;;;;;18.66;44.27;98964.47;5024206;28;20073;-71
2023/10/04 07:48:35;;;;;;;17.58;5.18;;;;;;;18.86;43.87;98982.75;5022056;28;20053;-71
2023/10/04 07:51:01;;;;;;;16.80;5.30;;;;;;;19.16;43.86;99008.34;5023143;28;20030;-71
2023/10/04 07:53:27;;;;;;;17.70;5.38;;;;;;;19.46;43.62;99013.63;5018163;28;20104;-71
2023/10/04 07:55:54;;;;;;;16.77;5.63;;;;;;;19.94;43.23;98994.16;5023138;28;20038;-70
2023/10/04 07:58:20;;;;;;;12.13;4.90;;;;;;;20.21;42.49;99001.31;5022773;28;20049;-73
2023/10/04 08:00:46;;;;;;;12.48;5.43;;;;;;;20.13;41.96;99000.03;5030271;28;20038;-71
2023/10/04 08:03:15;;;;;;;17.95;5.45;;;;;;;19.90;41.83;98979.44;5030422;28;20049;-71
2023/10/04 08:05:42;;;;;;;15.20;4.93;;;;;;;19.84;41.96;98984.13;5020317;28;20492;-72
2023/10/04 08:08:08;;;;;;;12.25;5.18;;;;;;;20.08;42.20;98996.81;5022829;28;20524;-71
2023/10/04 08:10:40;;;;;;;16.20;5.43;;;;;;;20.82;41.78;98978.16;5022565;28;20049;-72
2023/10/04 08:13:10;;;;;;;17.27;5.53;;;;;;;21.96;40.49;98998.03;5026621;28;20046;-70
2023/10/04 08:15:37;;;;;;;16.55;5.82;;;;;;;22.73;38.13;98981.19;5023169;28;20140;-71
2023/10/04 08:18:04;;;;;;;10.95;4.93;;;;;;;23.02;37.17;98959.63;5030788;28;20056;-71
2023/10/04 08:20:33;;;;;;;16.63;5.88;;;;;;;22.83;37.26;98995.47;5025253;28;20045;-71
2023/10/04 08:23:02;;;;;;;14.82;5.75;;;;;;;22.34;37.55;98965.34;5024702;28;20100;-72
2023/10/04 08:25:32;;;;;;;13.52;5.70;;;;;;;22.01;37.44;98971.22;5032449;28;20156;-71
2023/10/04 08:28:01;;;;;;;11.85;5.50;;;;;;;21.62;38.27;98977.34;5024966;28;20045;-72
2023/10/04 08:30:30;;;;;;;17.73;5.28;;;;;;;21.31;38.40;98952.06;5038725;28;20577;-71
2023/10/04 08:32:59;;;;;;;17.48;6.10;;;;;;;21.27;38.88;98974.38;5026211;28;20084;-72
2023/10/04 08:35:27;;;;;;;15.65;5.75;;;;;;;20.94;39.16;98992.38;5041689;28;20034;-71
2023/10/04 08:37:56;;;;;;;17.50;6.25;;;;;;;20.70;39.39;98965.72;5018318;28;20104;-71
2023/10/04 08:40:25;;;;;;;14.05;5.28;;;;;;;20.44;39.31;98999.91;5037269;28;20094;-72
2023/10/04 08:42:52;;;;;;;17.60;5.78;;;;;;;20.25;40.27;98982.56;5023241;28;20045;-70
2023/10/04 08:45:20;;;;;;;19.88;5.68;;;;;;;20.23;40.19;99008.22;5031812;28;20130;-71
2023/10/04 08:47:59;;;;;;;15.75;5.68;;;;;;;20.13;40.69;98970.97;5035869;28;20048;-72
2023/10/04 08:50:57;;;;;;;15.85;5.07;;;;;;;19.39;40.94;98844.34;5023692;28;20077;-71
2023/10/04 08:53:47;;;;;;;16.50;5.53;;;;;;;19.98;40.63;98978.03;5037629;28;20041;-67
2023/10/04 08:56:18;;;;;;;12.93;5.15;;;;;;;19.92;41.39;98957.28;5019580;28;20053;-70
2023/10/04 08:58:55;;;;;;;16.60;5.40;;;;;;;20.35;40.82;98966.13;5023112;28;20510;-76
2023/10/04 09:01:26;;;;;;;10.13;4.82;;;;;;;20.74;40.33;98948.72;5021912;28;20033;-73
2023/10/04 09:03:58;;;;;;;13.13;5.13;;;;;;;21.44;39.69;98944.16;5023287;28;20053;-71
2023/10/04 09:06:24;;;;;;;17.42;4.95;;;;;;;21.75;38.63;98944.72;5028395;28;20141;-69
2023/10/04 09:08:53;;;;;;;11.35;5.07;;;;;;;21.63;38.82;98907.59;5022737;28;20044;-71
2023/10/04 09:11:20;;;;;;;15.25;5.20;;;;;;;21.78;39.06;98910.97;5043042;28;20063;-70
2023/10/04 09:13:55;;;;;;;10.52;5.30;;;;;;;22.20;38.43;98926.56;5039045;28;20046;-71
2023/10/04 09:16:28;;;;;;;11.25;5.03;;;;;;;22.93;37.46;98952.34;5039535;28;20522;-70
2023/10/04 09:19:14;;;;;;;12.55;4.75;;;;;;;23.41;36.04;98947.03;5022028;28;20518;-69
2023/10/04 09:21:42;;;;;;;10.38;4.80;;;;;;;23.48;35.46;98954.53;5018580;28;20045;-71
2023/10/04 09:24:14;;;;;;;15.38;5.05;;;;;;;23.33;35.91;98933.47;5018133;28;20095;-71
2023/10/04 09:26:54;;;;;;;12.70;5.90;;;;;;;23.22;35.13;98968.78;5024046;28;20057;-71
2023/10/04 09:29:38;;;;;;;14.20;5.50;;;;;;;23.10;35.30;98922.75;5022492;28;20508;-70
2023/10/04 09:32:09;;;;;;;11.82;5.57;;;;;;;23.35;35.36;98914.78;5038753;28;20768;-70
2023/10/04 09:34:37;;;;;;;16.08;6.00;;;;;;;23.35;35.50;98914.78;5021225;28;20634;-69
2023/10/04 09:37:19;;;;;;;11.73;5.35;;;;;;;22.99;35.77;98891.72;5021729;28;20064;-70
2023/10/04 09:39:46;;;;;;;11.75;5.43;;;;;;;22.96;35.87;98897.25;5035327;28;20086;-71
2023/10/04 09:42:14;;;;;;;12.68;5.10;;;;;;;22.82;35.85;98895.66;5040378;28;20034;-73
2023/10/04 09:44:40;;;;;;;20.83;5.10;;;;;;;22.35;35.94;98907.91;5038050;28;20041;-72
2023/10/04 09:47:09;;;;;;;12.55;4.97;;;;;;;22.01;36.42;98903.22;5024546;28;20077;-70
2023/10/04 09:49:37;;;;;;;17.52;5.72;;;;;;;21.71;36.92;98895.63;5037610;28;20065;-72
2023/10/04 09:52:12;;;;;;;18.58;5.57;;;;;;;21.57;37.17;98918.53;5023098;28;20421;-71
2023/10/04 09:54:40;;;;;;;12.95;5.43;;;;;;;21.43;37.50;98918.66;5021478;28;20160;-69
2023/10/04 09:57:12;;;;;;;16.92;5.53;;;;;;;21.33;38.00;98911.34;5039563;28;20045;-70
2023/10/04 09:59:49;;;;;;;15.00;4.88;;;;;;;21.32;38.03;98893.75;5020645;28;20041;-71
2023/10/04 10:02:17;;;;;;;17.65;5.63;;;;;;;21.28;38.62;98886.16;5023930;28;20072;-69
2023/10/04 10:05:09;;;;;;;13.30;5.18;;;;;;;21.33;37.90;98889.34;5034539;28;20044;-72
2023/10/04 10:07:39;;;;;;;21.95;5.97;;;;;;;21.34;38.18;98899.78;5019785;28;20068;-74
2023/10/04 10:10:19;;;;;;;16.27;5.50;;;;;;;21.36;37.98;98905.84;5020134;28;20091;-73
2023/10/04 10:13:12;;;;;;;15.50;5.30;;;;;;;21.35;38.21;98905.94;5050275;28;20496;-74
2023/10/04 10:15:41;;;;;;;11.70;5.20;;;;;;;21.39;38.83;98888.06;5031379;28;20014;-69
2023/10/04 10:18:11;;;;;;;13.35;6.10;;;;;;;21.28;38.65;98844.69;5017897;28;20050;-70
2023/10/04 10:20:39;;;;;;;14.05;5.28;;;;;;;21.43;38.10;98829.53;5028434;28;20050;-69
2023/10/04 10:23:15;;;;;;;14.48;6.00;;;;;;;21.66;38.32;98872.09;5015590;28;20065;-72
2023/10/04 10:26:47;;;;;;;;;;;;;;;;;;;;;
2023/10/04 10:29:29;;;;;;;11.82;5.00;;;;;;;21.23;38.49;98838.84;4955932;28;20597;-71
2023/10/04 10:32:01;;;;;;;14.15;5.70;;;;;;;20.98;38.75;98815.84;5016604;28;20030;-71
2023/10/04 10:34:30;;;;;;;11.07;5.43;;;;;;;21.16;39.03;98864.00;5013838;28;20041;-71
2023/10/04 10:37:18;;;;;;;13.95;5.20;;;;;;;21.28;39.20;98847.31;4980737;28;20109;-71
2023/10/04 10:39:51;;;;;;;9.70;4.82;;;;;;;21.30;38.65;98871.84;5029311;28;20045;-72
2023/10/04 10:42:21;;;;;;;11.52;4.80;;;;;;;21.22;39.13;98904.13;5031844;28;20038;-72
2023/10/04 10:44:50;;;;;;;13.10;5.07;;;;;;;21.09;39.44;98868.00;5035002;28;20053;-75
2023/10/04 10:47:27;;;;;;;16.08;5.45;;;;;;;20.96;39.39;98863.56;5024535;28;20046;-72
2023/10/04 10:49:59;;;;;;;15.80;4.97;;;;;;;20.77;39.37;98858.66;5032434;28;20046;-70
2023/10/04 10:52:30;;;;;;;14.75;5.35;;;;;;;20.93;39.51;98884.91;5010880;28;20142;-70
2023/10/04 10:54:58;;;;;;;10.05;4.85;;;;;;;20.85;39.86;98874.03;5029742;28;20045;-71
2023/10/04 10:57:29;;;;;;;9.32;4.60;;;;;;;20.76;40.05;98867.53;5030220;28;20034;-71
2023/10/04 11:00:01;;;;;;;15.60;5.57;;;;;;;20.72;40.02;98876.59;5011820;28;20037;-70
2023/10/04 11:02:27;;;;;;;12.95;5.57;;;;;;;20.70;40.38;98874.03;5014829;28;20041;-70
2023/10/04 11:04:55;;;;;;;14.48;5.40;;;;;;;20.61;40.43;98864.91;5012511;28;20046;-70
2023/10/04 11:07:22;;;;;;;9.25;5.00;;;;;;;20.41;40.65;98855.63;5036965;28;20060;-70
2023/10/04 11:09:52;;;;;;;9.63;4.80;;;;;;;20.42;41.00;98873.19;5013074;28;20038;-73
2023/10/04 11:12:23;;;;;;;12.95;5.47;;;;;;;20.32;40.99;98880.00;5031248;28;20034;-71
2023/10/04 11:14:50;;;;;;;11.23;4.93;;;;;;;20.21;40.95;98906.25;5020037;28;20088;-71
2023/10/04 11:17:18;;;;;;;15.80;5.20;;;;;;;19.95;41.61;98877.06;5016842;28;20064;-71
2023/10/04 11:19:44;;;;;;;19.20;5.10;;;;;;;19.97;41.56;98901.59;5017080;28;20050;-71
2023/10/04 11:22:11;;;;;;;10.65;5.28;;;;;;;19.85;41.92;98921.63;5029632;28;20049;-72
2023/10/04 11:24:42;;;;;;;11.30;5.55;;;;;;;19.65;42.39;98909.66;5028097;28;20039;-71
2023/10/04 11:27:17;;;;;;;11.75;5.43;;;;;;;19.59;42.48;98928.47;5015987;28;20543;-71
2023/10/04 11:29:49;;;;;;;13.35;5.15;;;;;;;19.45;42.58;98948.63;5017452;28;20095;-69
2023/10/04 11:32:15;;;;;;;10.48;5.40;;;;;;;19.39;42.71;98938.44;5016224;28;20068;-70
2023/10/04 11:34:44;;;;;;;16.10;5.10;;;;;;;19.25;43.05;98932.19;5034885;28;20452;-71
2023/10/04 11:37:11;;;;;;;12.68;5.25;;;;;;;19.22;43.23;98937.66;5029988;28;20130;-70
2023/10/04 11:39:39;;;;;;;15.73;5.45;;;;;;;19.28;43.40;98952.25;5019289;28;20044;-70
2023/10/04 11:42:21;;;;;;;11.32;4.97;;;;;;;19.15;43.74;98946.00;5029668;28;20042;-72
2023/10/04 11:44:48;;;;;;;14.00;5.43;;;;;;;19.18;43.79;98975.66;5018346;28;20048;-72
2023/10/04 11:47:26;;;;;;;14.68;5.20;;;;;;;18.93;44.10;98977.03;5028472;28;20046;-70
2023/10/04 11:49:59;;;;;;;16.63;5.93;;;;;;;18.64;45.53;98990.06;5014813;28;20037;-71